| Date | Time | Temp. (oF) | Dew Point (oF) | Rel. Hum. (%) | Press. (in.) | Wind Dir. | Wind Speed (mph) | Hourly Rainfall (in.) |
|
|---|---|---|---|---|---|---|---|---|---|
| 1 | 09/08 | 00:00 | 60 | 55 | 85 | 30.19 | SW | 0 | 0.00 |
| 2 | 09/07 | 23:00 | 63 | 56 | 80 | 30.19 | SW | 2 | 0.00 |
| 3 | 09/07 | 22:00 | 66 | 56 | 72 | 30.20 | SSW | 0 | 0.00 |
| 4 | 09/07 | 21:00 | 69 | 55 | 62 | 30.20 | S | 1 | 0.00 |
| 5 | 09/07 | 20:00 | 73 | 54 | 53 | 30.19 | S | 2 | 0.00 |
| 6 | 09/07 | 19:00 | 78 | 55 | 46 | 30.18 | SSW | 4 | 0.00 |
| 7 | 09/07 | 18:00 | 81 | 56 | 44 | 30.18 | SE | 4 | 0.00 |
| 8 | 09/07 | 17:00 | 83 | 56 | 41 | 30.20 | S | 5 | 0.00 |
| 9 | 09/07 | 16:00 | 84 | 58 | 42 | 30.23 | NNE | 6 | 0.00 |
| 10 | 09/07 | 15:00 | 83 | 57 | 43 | 30.26 | SE | 4 | 0.00 |
| 11 | 09/07 | 14:00 | 82 | 57 | 44 | 30.28 | SE | 4 | 0.00 |
| 12 | 09/07 | 13:00 | 81 | 59 | 48 | 30.31 | S | 5 | 0.00 |
| 13 | 09/07 | 12:00 | 78 | 58 | 52 | 30.33 | S | 4 | 0.00 |
| 14 | 09/07 | 11:00 | 74 | 59 | 61 | 30.35 | E | 2 | 0.00 |
| 15 | 09/07 | 10:00 | 68 | 64 | 89 | 30.36 | N | 1 | 0.00 |
| 16 | miss | miss | miss | miss | miss | miss | miss | miss | |
| 17 | 09/06 | 12:22 | 77 | 60 | 58 | 30.43 | NE | 8 | 0.00 |
| 18 | miss | miss | miss | miss | miss | miss | miss | miss | |
| 19 | 09/06 | 12:20 | 77 | 60 | 58 | 30.44 | ENE | 4 | 0.00 |
| 20 | miss | miss | miss | miss | miss | miss | miss | miss | |
| 21 | 09/06 | 12:18 | 78 | 61 | 58 | 30.44 | SE | 3 | 0.00 |
| 22 | miss | miss | miss | miss | miss | miss | miss | miss | |
| 23 | 09/06 | 12:16 | 78 | 61 | 58 | 30.44 | E | 4 | 0.00 |
| 24 | miss | miss | miss | miss | miss | miss | miss | miss | |
| 25 | 09/06 | 12:14 | 78 | 62 | 59 | 30.44 | NNE | 5 | 0.00 |
| 26 | miss | miss | miss | miss | miss | miss | miss | miss | |
| 27 | 09/06 | 12:14 | 78 | 62 | 59 | 30.44 | NNE | 5 | 0.00 |
| 28 | miss | miss | miss | miss | miss | miss | miss | miss | |
| 29 | 09/06 | 12:14 | 78 | 62 | 59 | 30.44 | NNE | 5 | 0.00 |
| 30 | miss | miss | miss | miss | miss | miss | miss | miss | |
| 31 | 09/06 | 12:14 | 78 | 62 | 59 | 30.44 | NNE | 5 | 0.00 |
| 32 | miss | miss | miss | miss | miss | miss | miss | miss | |
| 33 | 09/06 | 12:14 | 78 | 62 | 59 | 30.44 | NNE | 5 | 0.00 |
| 34 | miss | miss | miss | miss | miss | miss | miss | miss | |
| 35 | 09/06 | 12:14 | 78 | 62 | 59 | 30.44 | NNE | 5 | 0.00 |
| 36 | miss | miss | miss | miss | miss | miss | miss | miss | |
| 37 | 09/06 | 12:00 | 78 | 62 | 59 | 30.45 | S | 3 | 0.00 |
| 38 | 09/06 | 11:00 | 74 | 62 | 67 | 30.46 | E | 4 | 0.00 |
| 39 | 09/06 | 10:00 | 70 | 64 | 83 | 30.48 | SE | 3 | 0.00 |
| 40 | 09/06 | 09:00 | 63 | 63 | 100 | 30.47 | E | 1 | 0.00 |
| 41 | 09/06 | 08:00 | 57 | 57 | 100 | 30.47 | ESE | 0 | 0.00 |
| 42 | 09/06 | 07:00 | 55 | 54 | 98 | 30.47 | E | 0 | 0.00 |
| 43 | 09/06 | 06:00 | 56 | 55 | 97 | 30.45 | E | 0 | 0.00 |
| 44 | 09/06 | 05:00 | 57 | 55 | 96 | 30.43 | NNE | 0 | 0.00 |
| 45 | 09/06 | 04:00 | 59 | 57 | 95 | 30.43 | NNE | 0 | 0.00 |
| 46 | 09/06 | 03:00 | 60 | 57 | 92 | 30.43 | NNE | 0 | 0.00 |
| 47 | 09/06 | 02:00 | 63 | 60 | 90 | 30.43 | NNE | 0 | 0.00 |
| 48 | 09/06 | 01:00 | 64 | 60 | 89 | 30.43 | S | 0 | 0.00 |
| 49 | 09/06 | 00:00 | 64 | 61 | 90 | 30.43 | S | 4 | 0.00 |
| 50 | 09/05 | 23:00 | 64 | 60 | 87 | 30.41 | SSE | 0 | 0.00 |
| 51 | 09/05 | 22:00 | 67 | 59 | 78 | 30.41 | NNE | 0 | 0.00 |
| 52 | 09/05 | 21:00 | 71 | 60 | 69 | 30.40 | E | 0 | 0.00 |
| 53 | 09/05 | 20:00 | 76 | 59 | 57 | 30.37 | E | 0 | 0.00 |
| 54 | 09/05 | 19:00 | 80 | 59 | 50 | 30.35 | ESE | 2 | 0.00 |
| 55 | 09/05 | 18:00 | 82 | 57 | 44 | 30.34 | S | 2 | 0.00 |
| 56 | 09/05 | 17:00 | 82 | 57 | 43 | 30.34 | ESE | 5 | 0.00 |
| 57 | 09/05 | 16:00 | 83 | 58 | 44 | 30.35 | NNW | 1 | 0.00 |
| 58 | 09/05 | 15:00 | 83 | 60 | 47 | 30.37 | S | 6 | 0.00 |
| 59 | 09/05 | 14:00 | 82 | 58 | 46 | 30.39 | NE | 4 | 0.00 |
| 60 | 09/05 | 13:00 | 78 | 60 | 55 | 30.40 | NNE | 1 | 0.00 |
| 61 | 09/05 | 12:00 | 79 | 63 | 59 | 30.41 | E | 3 | 0.00 |
| 62 | 09/05 | 11:00 | 75 | 62 | 65 | 30.41 | ENE | 1 | 0.00 |
| 63 | 09/05 | 10:00 | 71 | 61 | 71 | 30.41 | NE | 3 | 0.00 |
| 64 | 09/05 | 09:00 | 64 | 63 | 97 | 30.40 | E | 1 | 0.00 |
| 65 | 09/05 | 08:00 | 56 | 55 | 100 | 30.39 | S | 0 | 0.00 |
| 66 | 09/05 | 07:00 | 54 | 54 | 100 | 30.37 | S | 0 | 0.00 |
| 67 | 09/05 | 06:00 | 55 | 54 | 99 | 30.36 | SE | 0 | 0.00 |
| 68 | 09/05 | 05:00 | 56 | 55 | 97 | 30.34 | SE | 0 | 0.00 |
| 69 | 09/05 | 04:00 | 57 | 55 | 96 | 30.33 | SE | 0 | 0.00 |
| 70 | 09/05 | 03:00 | 58 | 56 | 95 | 30.33 | SE | 0 | 0.00 |